Time;durP1;ratioP1;P1;durP2;ratioP2;P2;SDS_P1;SDS_P2;PMS_P1;PMS_P2;Temp;Humidity;BMP_temperature;BMP_pressure;BME280_temperature;BME280_humidity;BME280_pressure;Samples;Min_cycle;Max_cycle;Signal;HPM_P1;HPM_P2
2022/01/10 00:00:23;;;;;;;;;;;;;;;-0.89;100.00;95103.22;1029913;28;19922;-67
2022/01/10 00:00:54;;;;;;;;;;;;;;;-0.85;100.00;95106.19;1026742;28;19914;-66
2022/01/10 00:01:28;;;;;;;;;;;;;;;-0.85;100.00;95106.97;1022766;28;19914;-66
2022/01/10 00:01:58;;;;;;;;;;;;;;;-0.83;100.00;95111.94;1026586;28;19918;-66
2022/01/10 00:02:29;;;;;;;;;;;;;;;-0.84;100.00;95108.56;1026490;28;19920;-66
2022/01/10 00:02:59;;;;;;;;;;;;;;;-0.84;100.00;95111.16;1026606;28;19971;-67
2022/01/10 00:03:29;;;;;;;;;;;;;;;-0.82;100.00;95103.97;1022258;28;19970;-66
2022/01/10 00:04:00;;;;;;;;;;;;;;;-0.81;100.00;95107.34;1025068;28;19926;-66
2022/01/10 00:04:30;;;;;;;;;;;;;;;-0.80;100.00;95111.53;1030594;28;20335;-67
2022/01/10 00:05:00;;;;;;;;;;;;;;;-0.81;100.00;95108.13;1018510;29;20005;-66
2022/01/10 00:05:33;;;;;;;;;;;;;;;-0.80;100.00;95107.16;1012855;29;19927;-66
2022/01/10 00:06:04;;;;;;;;;;;;;;;-0.79;100.00;95113.88;1007440;29;19975;-66
2022/01/10 00:06:35;;;;;;;;;;;;;;;-0.78;100.00;95106.94;1019314;28;20216;-67
2022/01/10 00:07:05;;;;;;;;;;;;;;;-0.80;100.00;95107.16;1027097;28;20004;-66
2022/01/10 00:07:36;;;;;;;;;;;;;;;-0.79;100.00;95107.94;1030435;28;20283;-67
2022/01/10 00:08:06;;;;;;;;;;;;;;;-0.77;100.00;95108.50;1030578;28;19913;-67
2022/01/10 00:08:37;;;;;;;;;;;;;;;-0.73;100.00;95110.47;1029476;28;19921;-66
2022/01/10 00:09:07;;;;;;;;;;;;;;;-0.69;100.00;95110.06;1026408;28;20319;-65
2022/01/10 00:09:38;;;;;;;;;;;;;;;-0.65;100.00;95113.81;1030624;28;19945;-66
2022/01/10 00:10:08;;;;;;;;;;;;;;;-0.64;100.00;95112.78;1025780;28;19910;-64
2022/01/10 00:10:38;;;;;;;;;;;;;;;-0.65;100.00;95113.81;1027094;28;20352;-66
2022/01/10 00:11:09;;;;;;;;;;;;;;;-0.63;100.00;95122.91;1023303;29;19920;-66
2022/01/10 00:11:40;;;;;;;;;;;;;;;-0.63;100.00;95111.81;1023208;29;19926;-66
2022/01/10 00:12:10;;;;;;;;;;;;;;;-0.63;100.00;95117.75;1027420;28;19935;-66
2022/01/10 00:12:40;;;;;;;;;;;;;;;-0.63;100.00;95111.81;1027112;28;20388;-65
2022/01/10 00:13:11;;;;;;;;;;;;;;;-0.62;100.00;95118.53;1031353;28;19917;-67
2022/01/10 00:13:41;;;;;;;;;;;;;;;-0.63;100.00;95119.53;1025831;28;20364;-67
2022/01/10 00:14:11;;;;;;;;;;;;;;;-0.62;100.00;95114.16;1021437;28;19907;-69
2022/01/10 00:14:42;;;;;;;;;;;;;;;-0.61;100.00;95114.97;1019393;29;20472;-66
2022/01/10 00:15:12;;;;;;;;;;;;;;;-0.61;100.00;95114.97;1019713;29;20476;-66
2022/01/10 00:15:44;;;;;;;;;;;;;;;-0.60;100.00;95116.56;1023089;28;20423;-66
2022/01/10 00:16:15;;;;;;;;;;;;;;;-0.60;100.00;95124.28;1027811;28;19953;-65
2022/01/10 00:16:45;;;;;;;;;;;;;;;-0.60;100.00;95116.56;1031400;28;19910;-66
2022/01/10 00:17:15;;;;;;;;;;;;;;;-0.61;100.00;95114.97;1028476;28;19922;-66
2022/01/10 00:17:46;;;;;;;;;;;;;;;-0.61;100.00;95112.38;1027199;28;20780;-67
2022/01/10 00:18:18;;;;;;;;;;;;;;;-0.62;100.00;95113.38;1027134;28;19918;-66
2022/01/10 00:18:49;;;;;;;;;;;;;;;-0.61;100.00;95114.97;1027258;28;20633;-66
2022/01/10 00:19:20;;;;;;;;;;;;;;;-0.59;100.00;95115.56;1027346;28;19917;-66
2022/01/10 00:19:50;;;;;;;;;;;;;;;-0.58;100.00;95114.53;1026562;28;20363;-66
2022/01/10 00:20:20;;;;;;;;;;;;;;;-0.58;100.00;95114.53;1022918;28;19918;-64
2022/01/10 00:20:51;;;;;;;;;;;;;;;-0.57;100.00;95116.13;1027279;28;19918;-67
2022/01/10 00:21:21;;;;;;;;;;;;;;;-0.58;100.00;95119.69;1027225;28;19917;-66
2022/01/10 00:21:51;;;;;;;;;;;;;;;-0.58;100.00;95115.31;1031463;28;20276;-66
2022/01/10 00:22:23;;;;;;;;;;;;;;;-0.58;100.00;95117.13;1027015;28;19922;-66
2022/01/10 00:22:54;;;;;;;;;;;;;;;-0.60;100.00;95122.50;1026848;28;20663;-67
2022/01/10 00:23:24;;;;;;;;;;;;;;;-0.57;100.00;95116.13;1027407;28;19968;-66
2022/01/10 00:23:54;;;;;;;;;;;;;;;-0.56;100.00;95112.56;1027010;28;19918;-67
2022/01/10 00:24:25;;;;;;;;;;;;;;;-0.56;100.00;95117.72;1029954;28;19918;-66
2022/01/10 00:24:55;;;;;;;;;;;;;;;-0.56;100.00;95117.72;1035520;28;19919;-65
2022/01/10 00:25:26;;;;;;;;;;;;;;;-0.55;100.00;95120.06;1031085;28;19918;-65
2022/01/10 00:25:56;;;;;;;;;;;;;;;-0.56;100.00;95117.72;1024825;28;19921;-66
2022/01/10 00:26:26;;;;;;;;;;;;;;;-0.58;100.00;95123.06;1031254;28;20731;-66
2022/01/10 00:26:57;;;;;;;;;;;;;;;-0.59;100.00;95128.44;1023386;29;19918;-66
2022/01/10 00:27:27;;;;;;;;;;;;;;;-0.59;100.00;95115.56;1020657;29;19981;-65
2022/01/10 00:27:57;;;;;;;;;;;;;;;-0.58;100.00;95125.63;1015202;29;20308;-65
2022/01/10 00:28:28;;;;;;;;;;;;;;;-0.59;100.00;95118.91;1019203;29;20567;-64
2022/01/10 00:28:58;;;;;;;;;;;;;;;-0.60;100.00;95117.34;1023012;29;19934;-66
2022/01/10 00:29:28;;;;;;;;;;;;;;;-0.59;100.00;95118.91;1027141;28;19957;-66
2022/01/10 00:29:58;;;;;;;;;;;;;;;-0.59;100.00;95118.13;1031114;28;19913;-65
2022/01/10 00:30:29;;;;;;;;;;;;;;;-0.61;100.00;95115.75;1022557;28;19940;-66
2022/01/10 00:30:59;;;;;;;;;;;;;;;-0.61;100.00;95117.53;1024141;28;20028;-66
2022/01/10 00:31:29;;;;;;;;;;;;;;;-0.61;100.00;95118.31;1023535;29;19925;-65
2022/01/10 00:32:00;;;;;;;;;;;;;;;-0.61;100.00;95117.53;1023234;28;19942;-66
2022/01/10 00:32:30;;;;;;;;;;;;;;;-0.61;100.00;95117.53;1031101;28;19963;-67
2022/01/10 00:33:01;;;;;;;;;;;;;;;-0.60;100.00;95116.56;1027030;28;20021;-65
2022/01/10 00:33:31;;;;;;;;;;;;;;;-0.60;100.00;95119.13;1023259;29;20771;-66
2022/01/10 00:34:01;;;;;;;;;;;;;;;-0.59;100.00;95118.91;1019352;29;19954;-66
2022/01/10 00:34:32;;;;;;;;;;;;;;;-0.60;100.00;95116.56;1020844;29;19910;-67
2022/01/10 00:35:02;;;;;;;;;;;;;;;-0.59;100.00;95124.06;1027207;28;20388;-66
2022/01/10 00:35:32;;;;;;;;;;;;;;;-0.59;100.00;95121.50;1027343;28;19949;-65
2022/01/10 00:36:03;;;;;;;;;;;;;;;-0.58;100.00;95124.84;1027488;28;20001;-65
2022/01/10 00:36:33;;;;;;;;;;;;;;;-0.59;100.00;95118.91;1023084;29;20001;-67
2022/01/10 00:37:03;;;;;;;;;;;;;;;-0.58;100.00;95117.13;1019300;29;19914;-65
2022/01/10 00:37:34;;;;;;;;;;;;;;;-0.57;100.00;95122.09;1027205;28;19921;-66
2022/01/10 00:38:04;;;;;;;;;;;;;;;-0.57;100.00;95123.84;1027402;28;19921;-67
2022/01/10 00:38:34;;;;;;;;;;;;;;;-0.57;100.00;95122.09;1030990;28;19941;-65
2022/01/10 00:39:05;;;;;;;;;;;;;;;-0.57;100.00;95124.66;1035228;28;19914;-66
2022/01/10 00:39:35;;;;;;;;;;;;;;;-0.57;100.00;95126.41;1031400;28;19945;-66
2022/01/10 00:40:05;;;;;;;;;;;;;;;-0.57;100.00;95124.66;1030491;28;19933;-66
2022/01/10 00:40:36;;;;;;;;;;;;;;;-0.57;100.00;95118.69;1030962;28;19920;-66
2022/01/10 00:41:06;;;;;;;;;;;;;;;-0.56;100.00;95122.88;1027346;28;19910;-66
2022/01/10 00:41:37;;;;;;;;;;;;;;;-0.55;100.00;95121.84;1023138;29;19921;-66
2022/01/10 00:42:07;;;;;;;;;;;;;;;-0.55;100.00;95119.28;1027320;28;19910;-66
2022/01/10 00:42:38;;;;;;;;;;;;;;;-0.55;100.00;95124.44;1027102;28;19914;-65
2022/01/10 00:43:16;;;;;;;;;;;;;;;-0.54;100.00;95126.81;1027155;28;19948;-66
2022/01/10 00:43:48;;;;;;;;;;;;;;;-0.54;100.00;95126.00;1025532;28;19921;-66
2022/01/10 00:44:25;;;;;;;;;;;;;;;-0.55;100.00;95125.22;1023261;29;19937;-65
2022/01/10 00:44:57;;;;;;;;;;;;;;;-0.54;100.00;95123.44;1023508;29;20364;-66
2022/01/10 00:45:28;;;;;;;;;;;;;;;-0.54;100.00;95131.16;1024008;28;19910;-68
2022/01/10 00:45:58;;;;;;;;;;;;;;;-0.54;100.00;95131.16;1023268;29;20423;-66
2022/01/10 00:46:28;;;;;;;;;;;;;;;-0.55;100.00;95127.78;1023329;29;20379;-66
2022/01/10 00:46:59;;;;;;;;;;;;;;;-0.55;100.00;95130.38;1022989;29;20666;-66
2022/01/10 00:47:29;;;;;;;;;;;;;;;-0.54;100.00;95131.16;1023180;29;19917;-66
2022/01/10 00:47:59;;;;;;;;;;;;;;;-0.55;100.00;95132.94;1031327;28;19921;-66
2022/01/10 00:48:30;;;;;;;;;;;;;;;-0.55;100.00;95132.16;1030964;28;20048;-62
2022/01/10 00:49:00;;;;;;;;;;;;;;;-0.55;100.00;95134.75;1029674;28;19920;-66
2022/01/10 00:49:30;;;;;;;;;;;;;;;-0.55;100.00;95129.59;1035120;28;19956;-64
2022/01/10 00:50:01;;;;;;;;;;;;;;;-0.56;100.00;95133.97;1026750;28;19910;-64
2022/01/10 00:50:33;;;;;;;;;;;;;;;-0.56;100.00;95135.75;1030133;28;19922;-64
2022/01/10 00:51:03;;;;;;;;;;;;;;;-0.56;100.00;95133.16;1030684;28;20336;-65
2022/01/10 00:51:33;;;;;;;;;;;;;;;-0.56;100.00;95135.75;1025393;28;20641;-67
2022/01/10 00:52:04;;;;;;;;;;;;;;;-0.56;100.00;95139.09;1027228;28;19916;-66
2022/01/10 00:52:34;;;;;;;;;;;;;;;-0.56;100.00;95138.31;1030940;28;19914;-67
2022/01/10 00:53:05;;;;;;;;;;;;;;;-0.56;100.00;95138.31;1031277;28;20064;-66
2022/01/10 00:53:35;;;;;;;;;;;;;;;-0.55;100.00;95134.75;1026715;28;19910;-66
2022/01/10 00:54:05;;;;;;;;;;;;;;;-0.56;100.00;95139.09;1022947;28;19913;-66
2022/01/10 00:54:36;;;;;;;;;;;;;;;-0.55;100.00;95140.69;1023188;29;20041;-67
2022/01/10 00:55:06;;;;;;;;;;;;;;;-0.54;100.00;95133.72;1019035;29;19914;-66
2022/01/10 00:55:36;;;;;;;;;;;;;;;-0.53;100.00;95140.50;1022841;28;19966;-66
2022/01/10 00:56:08;;;;;;;;;;;;;;;-0.54;100.00;95138.88;1031320;28;19968;-68
2022/01/10 00:56:39;;;;;;;;;;;;;;;-0.54;100.00;95136.31;1023093;28;19911;-66
2022/01/10 00:57:09;;;;;;;;;;;;;;;-0.54;100.00;95141.47;1023020;28;19997;-64
2022/01/10 00:57:40;;;;;;;;;;;;;;;-0.54;100.00;95136.31;1022963;29;19911;-66
2022/01/10 00:58:10;;;;;;;;;;;;;;;-0.54;100.00;95138.88;1022865;28;19910;-64
2022/01/10 00:58:40;;;;;;;;;;;;;;;-0.53;100.00;95140.50;1021978;28;19910;-64
2022/01/10 00:59:10;;;;;;;;;;;;;;;-0.54;100.00;95136.31;1022154;29;19934;-64
2022/01/10 00:59:41;;;;;;;;;;;;;;;-0.54;100.00;95142.28;1022913;28;19922;-67
2022/01/10 01:00:12;;;;;;;;;;;;;;;-0.53;100.00;95140.50;1024288;28;20433;-65
2022/01/10 01:00:42;;;;;;;;;;;;;;;-0.53;100.00;95143.06;1026793;28;19906;-67
2022/01/10 01:01:12;;;;;;;;;;;;;;;-0.54;100.00;95131.16;1031124;28;19961;-65
2022/01/10 01:01:43;;;;;;;;;;;;;;;-0.52;100.00;95147.22;1030632;28;20012;-66
2022/01/10 01:02:13;;;;;;;;;;;;;;;-0.52;100.00;95136.91;1030809;28;19960;-65
2022/01/10 01:02:43;;;;;;;;;;;;;;;-0.53;100.00;95137.91;1027173;28;20628;-66
2022/01/10 01:03:14;;;;;;;;;;;;;;;-0.52;100.00;95134.31;1027025;28;20042;-66
2022/01/10 01:03:44;;;;;;;;;;;;;;;-0.52;100.00;95139.47;1022510;28;19917;-65
2022/01/10 01:04:15;;;;;;;;;;;;;;;-0.53;100.00;95141.28;1023243;28;20023;-67
2022/01/10 01:04:45;;;;;;;;;;;;;;;-0.54;100.00;95141.47;1027240;28;19957;-65
2022/01/10 01:05:16;;;;;;;;;;;;;;;-0.56;100.00;95139.09;1026893;28;19906;-65
2022/01/10 01:05:47;;;;;;;;;;;;;;;-0.56;100.00;95148.63;1026788;28;20135;-66
2022/01/10 01:06:17;;;;;;;;;;;;;;;-0.56;100.00;95143.47;1023086;29;20419;-66
2022/01/10 01:06:48;;;;;;;;;;;;;;;-0.55;100.00;95147.63;1022867;29;19961;-65
2022/01/10 01:07:18;;;;;;;;;;;;;;;-0.55;100.00;95148.41;1019153;29;19958;-65
2022/01/10 01:07:49;;;;;;;;;;;;;;;-0.53;100.00;95143.84;1023091;28;20012;-66
2022/01/10 01:08:19;;;;;;;;;;;;;;;-0.52;100.00;95144.63;1015222;29;19982;-64
2022/01/10 01:08:49;;;;;;;;;;;;;;;-0.53;100.00;95143.06;1011566;29;19951;-65
2022/01/10 01:09:25;;;;;;;;;;;;;;;-0.52;100.00;95139.47;1007530;29;20215;-66
2022/01/10 01:10:17;;;;;;;;;;;;;;;-0.52;100.00;95144.63;1013212;29;19946;-66
2022/01/10 01:13:08;;;;;;;;;;;;;;;-0.58;100.00;95145.47;1026756;28;19988;-62
2022/01/10 01:13:52;;;;;;;;;;;;;;;-0.59;100.00;95154.19;1022117;28;19925;-67
2022/01/10 01:14:26;;;;;;;;;;;;;;;-0.58;100.00;95153.97;1033634;28;19924;-66
2022/01/10 01:15:07;;;;;;;;;;;;;;;-0.57;100.00;95157.34;1031154;28;19906;-66
2022/01/10 01:15:56;;;;;;;;;;;;;;;-0.58;100.00;95153.97;1025575;28;19929;-66
2022/01/10 01:17:57;;;;;;;;;;;;;;;-0.55;100.00;95158.72;1024259;28;19906;-65
2022/01/10 01:24:24;;;;;;;;;;;;;;;-0.55;100.00;95168.22;1034001;28;19916;-66
2022/01/10 01:24:55;;;;;;;;;;;;;;;-0.53;100.00;95168.84;1035043;28;19920;-67
2022/01/10 01:25:25;;;;;;;;;;;;;;;-0.52;100.00;95172.97;1028574;28;20486;-66
2022/01/10 01:25:55;;;;;;;;;;;;;;;-0.51;100.00;95171.97;1025136;28;20368;-65
2022/01/10 01:26:26;;;;;;;;;;;;;;;-0.51;100.00;95177.13;1027366;28;19917;-66
2022/01/10 01:26:56;;;;;;;;;;;;;;;-0.51;100.00;95174.56;1022768;28;19903;-66
2022/01/10 01:27:26;;;;;;;;;;;;;;;-0.52;100.00;95178.13;1027118;28;19914;-66
2022/01/10 01:27:57;;;;;;;;;;;;;;;-0.53;100.00;95173.97;1021239;28;20563;-67
2022/01/10 01:28:28;;;;;;;;;;;;;;;-0.55;100.00;95176.75;1022801;28;19917;-64
2022/01/10 01:28:58;;;;;;;;;;;;;;;-0.56;100.00;95174.41;1026982;28;20403;-66
2022/01/10 01:29:29;;;;;;;;;;;;;;;-0.59;100.00;95177.38;1027029;28;19909;-65
2022/01/10 01:29:59;;;;;;;;;;;;;;;-0.59;100.00;95169.66;1021482;29;19913;-66
2022/01/10 01:30:29;;;;;;;;;;;;;;;-0.60;100.00;95170.66;1014256;29;19911;-66
2022/01/10 01:30:59;;;;;;;;;;;;;;;-0.61;100.00;95176.78;1014921;29;19918;-66
2022/01/10 01:31:30;;;;;;;;;;;;;;;-0.61;100.00;95177.56;1019133;28;19982;-63
2022/01/10 01:32:00;;;;;;;;;;;;;;;-0.57;100.00;95177.94;1024283;28;20713;-66
2022/01/10 01:32:30;;;;;;;;;;;;;;;-0.58;100.00;95177.16;1027737;28;19910;-63
2022/01/10 01:33:01;;;;;;;;;;;;;;;-0.59;100.00;95175.59;1023284;28;19903;-66
2022/01/10 01:33:31;;;;;;;;;;;;;;;-0.59;100.00;95179.97;1018851;28;20328;-66
2022/01/10 01:34:02;;;;;;;;;;;;;;;-0.59;100.00;95179.97;1023147;29;19953;-66
2022/01/10 01:34:34;;;;;;;;;;;;;;;-0.60;100.00;95179.16;1026367;28;19926;-65
2022/01/10 01:35:07;;;;;;;;;;;;;;;-0.61;100.00;95175.00;1030981;28;19933;-66
2022/01/10 01:35:37;;;;;;;;;;;;;;;-0.59;100.00;95174.81;1030381;28;20696;-66
2022/01/10 01:36:08;;;;;;;;;;;;;;;-0.58;100.00;95184.09;1023322;28;19921;-65
2022/01/10 01:36:39;;;;;;;;;;;;;;;-0.61;100.00;95182.72;1026846;28;20317;-63
2022/01/10 01:37:11;;;;;;;;;;;;;;;-0.62;100.00;95170.84;1026955;28;19914;-66
2022/01/10 01:37:41;;;;;;;;;;;;;;;-0.62;100.00;95172.63;1027282;28;19918;-66
2022/01/10 01:38:12;;;;;;;;;;;;;;;-0.63;100.00;95174.44;1026951;28;19914;-65
2022/01/10 01:38:42;;;;;;;;;;;;;;;-0.63;100.00;95173.66;1026757;28;19914;-65
2022/01/10 01:39:21;;;;;;;;;;;;;;;-0.63;100.00;95178.78;1026747;28;19971;-66
2022/01/10 01:39:51;;;;;;;;;;;;;;;-0.63;100.00;95176.22;1025758;28;20269;-64
2022/01/10 01:40:26;;;;;;;;;;;;;;;-0.63;100.00;95171.84;1029050;28;19916;-65
2022/01/10 01:41:11;;;;;;;;;;;;;;;-0.63;100.00;95173.66;1026528;28;19914;-65
2022/01/10 01:41:42;;;;;;;;;;;;;;;-0.64;100.00;95182.34;1030785;28;20024;-64
2022/01/10 01:42:35;;;;;;;;;;;;;;;-0.65;100.00;95178.97;1026873;28;19953;-62
2022/01/10 01:43:05;;;;;;;;;;;;;;;-0.66;100.00;95184.34;1030481;28;20283;-67
2022/01/10 01:43:35;;;;;;;;;;;;;;;-0.67;100.00;95183.56;1031106;28;19901;-66
2022/01/10 01:44:05;;;;;;;;;;;;;;;-0.68;100.00;95183.75;1029452;28;19972;-65
2022/01/10 01:44:36;;;;;;;;;;;;;;;-0.67;100.00;95185.34;1024002;28;20438;-66
2022/01/10 01:45:07;;;;;;;;;;;;;;;-0.67;100.00;95182.75;1023033;29;19953;-65
2022/01/10 01:45:41;;;;;;;;;;;;;;;-0.68;100.00;95186.34;1023147;28;20026;-64
2022/01/10 01:46:12;;;;;;;;;;;;;;;-0.69;100.00;95190.69;1023458;28;20319;-66
2022/01/10 01:46:42;;;;;;;;;;;;;;;-0.68;100.00;95183.75;1027009;28;19914;-66
2022/01/10 01:47:12;;;;;;;;;;;;;;;-0.67;100.00;95193.06;1026204;28;19921;-66
2022/01/10 01:47:46;;;;;;;;;;;;;;;-0.68;100.00;95191.50;1027236;28;19956;-64
2022/01/10 01:48:16;;;;;;;;;;;;;;;-0.70;100.00;95194.28;1026577;28;20569;-65
2022/01/10 01:48:46;;;;;;;;;;;;;;;-0.69;100.00;95195.84;1030562;28;19912;-64
2022/01/10 01:49:16;;;;;;;;;;;;;;;-0.68;100.00;95186.34;1022987;29;19921;-66
2022/01/10 01:49:47;;;;;;;;;;;;;;;-0.71;100.00;95178.00;1022335;28;19910;-63
2022/01/10 01:50:17;;;;;;;;;;;;;;;-0.71;100.00;95187.53;1014309;29;19911;-65
2022/01/10 01:50:47;;;;;;;;;;;;;;;-0.71;100.00;95182.38;1011212;29;19980;-66
2022/01/10 01:51:18;;;;;;;;;;;;;;;-0.72;100.00;95189.31;1016018;29;19911;-66
2022/01/10 01:51:48;;;;;;;;;;;;;;;-0.73;100.00;95187.75;1022870;28;19957;-63
2022/01/10 01:52:18;;;;;;;;;;;;;;;-0.73;100.00;95185.16;1014891;29;19957;-67
2022/01/10 01:52:49;;;;;;;;;;;;;;;-0.74;100.00;95187.94;1022867;29;19910;-66
2022/01/10 01:53:19;;;;;;;;;;;;;;;-0.76;100.00;95190.72;1022596;28;19930;-66
2022/01/10 01:53:49;;;;;;;;;;;;;;;-0.75;100.00;95191.53;1026691;28;19983;-67
2022/01/10 01:54:20;;;;;;;;;;;;;;;-0.77;100.00;95184.00;1030918;28;19920;-66
2022/01/10 01:54:50;;;;;;;;;;;;;;;-0.75;100.00;95186.38;1026508;28;19937;-64
2022/01/10 01:55:21;;;;;;;;;;;;;;;-0.73;100.00;95186.97;1027325;28;19914;-66
2022/01/10 01:55:51;;;;;;;;;;;;;;;-0.76;100.00;95189.94;1022814;28;19953;-66
2022/01/10 01:56:21;;;;;;;;;;;;;;;-0.77;100.00;95191.75;1025249;28;19910;-65
2022/01/10 01:56:51;;;;;;;;;;;;;;;-0.77;100.00;95190.91;1018391;29;19911;-66
2022/01/10 01:57:22;;;;;;;;;;;;;;;-0.78;100.00;95187.56;1023596;29;19917;-66
2022/01/10 01:57:52;;;;;;;;;;;;;;;-0.78;100.00;95186.78;1019537;29;19922;-66
2022/01/10 01:58:23;;;;;;;;;;;;;;;-0.78;100.00;95187.56;1019397;29;19922;-67
2022/01/10 01:58:54;;;;;;;;;;;;;;;-0.77;100.00;95193.50;1027759;28;19920;-66
2022/01/10 01:59:25;;;;;;;;;;;;;;;-0.77;100.00;95193.50;1027937;28;20461;-66
2022/01/10 01:59:55;;;;;;;;;;;;;;;-0.78;100.00;95189.34;1025220;28;19949;-66
2022/01/10 02:00:25;;;;;;;;;;;;;;;-0.79;100.00;95196.28;1023170;29;19917;-65
2022/01/10 02:00:56;;;;;;;;;;;;;;;-0.78;100.00;95191.94;1023650;29;19915;-66
2022/01/10 02:01:26;;;;;;;;;;;;;;;-0.79;100.00;95195.50;1024056;28;19926;-65
2022/01/10 02:01:57;;;;;;;;;;;;;;;-0.79;100.00;95196.28;1027368;28;19914;-65
2022/01/10 02:02:27;;;;;;;;;;;;;;;-0.78;100.00;95197.06;1031690;28;19964;-64
2022/01/10 02:02:57;;;;;;;;;;;;;;;-0.80;100.00;95197.28;1027910;28;19924;-64
2022/01/10 02:03:29;;;;;;;;;;;;;;;-0.79;100.00;95195.50;1027143;28;19921;-66
2022/01/10 02:04:00;;;;;;;;;;;;;;;-0.79;100.00;95196.28;1027676;28;19957;-66
2022/01/10 02:04:30;;;;;;;;;;;;;;;-0.79;100.00;95198.09;1019680;29;19918;-63
2022/01/10 02:05:00;;;;;;;;;;;;;;;-0.80;100.00;95199.88;1023419;28;20379;-66
2022/01/10 02:05:30;;;;;;;;;;;;;;;-0.80;100.00;95197.28;1023723;29;19918;-65
2022/01/10 02:06:01;;;;;;;;;;;;;;;-0.81;100.00;95198.28;1022201;28;19922;-66
2022/01/10 02:06:31;;;;;;;;;;;;;;;-0.81;100.00;95198.28;1027553;28;20268;-64
2022/01/10 02:07:02;;;;;;;;;;;;;;;-0.81;100.00;95197.47;1031748;28;19920;-66
2022/01/10 02:07:32;;;;;;;;;;;;;;;-0.81;100.00;95193.13;1027751;28;19910;-66
2022/01/10 02:08:02;;;;;;;;;;;;;;;-0.81;100.00;95197.47;1031646;28;19953;-63
2022/01/10 02:08:33;;;;;;;;;;;;;;;-0.82;100.00;95201.84;1027347;28;19918;-66
2022/01/10 02:09:03;;;;;;;;;;;;;;;-0.82;100.00;95195.91;1023869;28;19910;-65
2022/01/10 02:09:33;;;;;;;;;;;;;;;-0.83;100.00;95196.91;1027816;28;19977;-66
2022/01/10 02:10:04;;;;;;;;;;;;;;;-0.85;100.00;95194.53;1023099;28;19914;-63
2022/01/10 02:10:35;;;;;;;;;;;;;;;-0.83;100.00;95204.63;1023448;29;19922;-65
2022/01/10 02:11:05;;;;;;;;;;;;;;;-0.84;100.00;95200.47;1023871;29;19914;-65
2022/01/10 02:11:36;;;;;;;;;;;;;;;-0.85;100.00;95202.25;1019466;28;19937;-66
2022/01/10 02:12:06;;;;;;;;;;;;;;;-0.85;100.00;95207.41;1017571;29;19961;-66
2022/01/10 02:12:36;;;;;;;;;;;;;;;-0.86;100.00;95207.63;1023732;28;20001;-67
2022/01/10 02:13:07;;;;;;;;;;;;;;;-0.88;100.00;95212.97;1023622;28;19993;-66
2022/01/10 02:13:37;;;;;;;;;;;;;;;-0.89;100.00;95211.38;1023582;28;19961;-65
2022/01/10 02:14:08;;;;;;;;;;;;;;;-0.89;100.00;95213.97;1023649;29;20201;-63
2022/01/10 02:14:41;;;;;;;;;;;;;;;-0.87;100.00;95218.91;1015796;29;19918;-66
2022/01/10 02:15:26;;;;;;;;;;;;;;;-0.90;100.00;95217.53;1018519;29;19921;-64
2022/01/10 02:16:00;;;;;;;;;;;;;;;-0.89;100.00;95213.97;1023871;29;19911;-66
2022/01/10 02:16:39;;;;;;;;;;;;;;;-0.90;100.00;95214.97;1026469;28;19996;-66
2022/01/10 02:17:12;;;;;;;;;;;;;;;-0.91;100.00;95213.38;1030733;28;20474;-67
2022/01/10 02:17:45;;;;;;;;;;;;;;;-0.89;100.00;95221.69;1029812;28;20020;-66
2022/01/10 02:18:18;;;;;;;;;;;;;;;-0.90;100.00;95214.97;1025429;28;19957;-64
2022/01/10 02:18:49;;;;;;;;;;;;;;;-0.92;100.00;95219.53;1024410;28;20434;-65
2022/01/10 02:19:19;;;;;;;;;;;;;;;-0.89;100.00;95221.69;1031915;28;19916;-66
2022/01/10 02:19:54;;;;;;;;;;;;;;;-0.91;100.00;95215.94;1031938;28;19913;-66
2022/01/10 02:20:24;;;;;;;;;;;;;;;-0.91;100.00;95226.25;1030791;28;19956;-66
2022/01/10 02:20:57;;;;;;;;;;;;;;;-0.91;100.00;95226.25;1027024;28;19956;-67
2022/01/10 02:21:27;;;;;;;;;;;;;;;-0.91;100.00;95228.81;1023841;29;19910;-65
2022/01/10 02:21:58;;;;;;;;;;;;;;;-0.92;100.00;95222.09;1024256;28;19918;-65
2022/01/10 02:22:28;;;;;;;;;;;;;;;-0.91;100.00;95233.97;1024186;28;19915;-64
2022/01/10 02:22:58;;;;;;;;;;;;;;;-0.89;100.00;95226.06;1027685;28;19906;-66
2022/01/10 02:23:28;;;;;;;;;;;;;;;-0.90;100.00;95233.00;1031947;28;19996;-66
2022/01/10 02:23:59;;;;;;;;;;;;;;;-0.90;100.00;95233.00;1031348;28;20011;-66
2022/01/10 02:24:29;;;;;;;;;;;;;;;-0.88;100.00;95230.19;1031748;28;19932;-64
2022/01/10 02:24:59;;;;;;;;;;;;;;;-0.88;100.00;95237.94;1031897;28;20323;-64
2022/01/10 02:25:30;;;;;;;;;;;;;;;-0.90;100.00;95238.13;1025046;28;19907;-66
2022/01/10 02:26:00;;;;;;;;;;;;;;;-0.90;100.00;95238.13;1023698;29;19910;-64
2022/01/10 02:26:30;;;;;;;;;;;;;;;-0.91;100.00;95233.97;1023541;28;20315;-64
2022/01/10 02:27:01;;;;;;;;;;;;;;;-0.91;100.00;95233.19;1027472;28;19950;-67
2022/01/10 02:27:31;;;;;;;;;;;;;;;-0.91;100.00;95228.81;1027561;28;20359;-65
2022/01/10 02:28:01;;;;;;;;;;;;;;;-0.91;100.00;95239.13;1027577;28;19914;-65
2022/01/10 02:28:32;;;;;;;;;;;;;;;-0.92;100.00;95234.97;1027639;28;19906;-66
2022/01/10 02:29:02;;;;;;;;;;;;;;;-0.92;100.00;95234.97;1030534;28;20437;-66
2022/01/10 02:29:36;;;;;;;;;;;;;;;-0.93;100.00;95235.97;1027506;28;20019;-65
2022/01/10 02:30:09;;;;;;;;;;;;;;;-0.92;100.00;95229.81;1023314;29;19911;-66
2022/01/10 02:30:39;;;;;;;;;;;;;;;-0.91;100.00;95238.31;1023416;29;19914;-66
2022/01/10 02:31:10;;;;;;;;;;;;;;;-0.92;100.00;95236.75;1023506;29;20411;-64
2022/01/10 02:31:40;;;;;;;;;;;;;;;-0.92;100.00;95236.75;1024364;28;20700;-66
2022/01/10 02:32:11;;;;;;;;;;;;;;;-0.91;100.00;95238.31;1027396;28;20276;-65
2022/01/10 02:32:41;;;;;;;;;;;;;;;-0.92;100.00;95240.13;1019295;28;19917;-66
2022/01/10 02:33:11;;;;;;;;;;;;;;;-0.92;100.00;95240.13;1023146;29;19914;-65
2022/01/10 02:33:41;;;;;;;;;;;;;;;-0.92;100.00;95237.53;1023786;29;19914;-66
2022/01/10 02:34:16;;;;;;;;;;;;;;;-0.91;100.00;95241.69;1029075;28;19914;-66
2022/01/10 02:34:47;;;;;;;;;;;;;;;-0.91;100.00;95239.13;1031821;28;19914;-67
2022/01/10 02:35:18;;;;;;;;;;;;;;;-0.90;100.00;95242.50;1030865;28;20368;-66
2022/01/10 02:36:02;;;;;;;;;;;;;;;-0.90;100.00;95243.28;1026764;28;19913;-64
2022/01/10 02:36:32;;;;;;;;;;;;;;;-0.88;100.00;95233.56;1029637;28;19914;-65
2022/01/10 02:37:03;;;;;;;;;;;;;;;-0.88;100.00;95238.72;1027757;28;19918;-66
2022/01/10 02:37:33;;;;;;;;;;;;;;;-0.87;100.00;95240.31;1025343;28;19918;-66
2022/01/10 02:38:04;;;;;;;;;;;;;;;-0.87;100.00;95242.88;1028333;28;19921;-66
2022/01/10 02:38:34;;;;;;;;;;;;;;;-0.86;100.00;95247.03;1024709;28;20204;-66
2022/01/10 02:39:07;;;;;;;;;;;;;;;-0.87;100.00;95248.03;1024848;28;19918;-65
2022/01/10 02:39:38;;;;;;;;;;;;;;;-0.85;100.00;95242.66;1029874;28;19984;-67
2022/01/10 02:40:13;;;;;;;;;;;;;;;-0.84;100.00;95250.22;1024871;28;19918;-64
2022/01/10 02:40:45;;;;;;;;;;;;;;;-0.83;100.00;95246.63;1024124;29;19910;-67
2022/01/10 02:41:22;;;;;;;;;;;;;;;-0.80;100.00;95246.22;1026643;29;20288;-65
2022/01/10 02:41:52;;;;;;;;;;;;;;;-0.77;100.00;95250.97;1023437;29;19915;-66
2022/01/10 02:42:22;;;;;;;;;;;;;;;-0.75;100.00;95243.81;1031830;28;19914;-66
2022/01/10 02:42:53;;;;;;;;;;;;;;;-0.74;100.00;95247.19;1030563;28;20057;-66
2022/01/10 02:43:23;;;;;;;;;;;;;;;-0.70;100.00;95248.38;1026499;28;19918;-67
2022/01/10 02:43:53;;;;;;;;;;;;;;;-0.66;100.00;95252.13;1029243;28;19933;-66
2022/01/10 02:44:24;;;;;;;;;;;;;;;-0.65;100.00;95251.13;1026343;28;19999;-64
2022/01/10 02:44:54;;;;;;;;;;;;;;;-0.64;100.00;95250.13;1030218;28;19956;-67
2022/01/10 02:45:24;;;;;;;;;;;;;;;-0.63;100.00;95258.66;1028074;28;19925;-66
2022/01/10 02:45:56;;;;;;;;;;;;;;;-0.64;100.00;95255.25;1031754;28;19922;-66
2022/01/10 02:46:26;;;;;;;;;;;;;;;-0.62;100.00;95255.88;1023981;29;19921;-66
2022/01/10 02:46:56;;;;;;;;;;;;;;;-0.59;100.00;95257.25;1023454;28;19921;-66
2022/01/10 02:47:29;;;;;;;;;;;;;;;-0.58;100.00;95261.41;1023624;29;19917;-66
2022/01/10 02:47:59;;;;;;;;;;;;;;;-0.57;100.00;95260.41;1020281;28;19926;-67
2022/01/10 02:48:29;;;;;;;;;;;;;;;-0.57;100.00;95261.22;1031752;28;20295;-66
2022/01/10 02:48:59;;;;;;;;;;;;;;;-0.54;100.00;95260.81;1031575;28;19914;-66
2022/01/10 02:49:30;;;;;;;;;;;;;;;-0.50;100.00;95263.75;1031884;28;19917;-62
2022/01/10 02:50:00;;;;;;;;;;;;;;;-0.50;100.00;95263.75;1031521;28;19920;-64